sensor_id;sensor_type;location;lat;lon;timestamp;P1;durP1;ratioP1;P2;durP2;ratioP2
46290;SDS011;32023;44.444;26.006;2023-05-21T00:00:13;12.25;;;6.53;;
46290;SDS011;32023;44.444;26.006;2023-05-21T00:02:40;9.52;;;6.63;;
46290;SDS011;32023;44.444;26.006;2023-05-21T00:05:06;7.75;;;6.15;;
46290;SDS011;32023;44.444;26.006;2023-05-21T00:07:41;10.43;;;6.22;;
46290;SDS011;32023;44.444;26.006;2023-05-21T00:10:08;8.88;;;6.82;;
46290;SDS011;32023;44.444;26.006;2023-05-21T00:12:35;10.68;;;6.75;;
46290;SDS011;32023;44.444;26.006;2023-05-21T00:15:07;15.98;;;7.38;;
46290;SDS011;32023;44.444;26.006;2023-05-21T00:17:34;12.02;;;7.07;;
46290;SDS011;32023;44.444;26.006;2023-05-21T00:20:01;9.77;;;6.95;;
46290;SDS011;32023;44.444;26.006;2023-05-21T00:22:37;12.20;;;6.88;;
46290;SDS011;32023;44.444;26.006;2023-05-21T00:25:07;13.35;;;6.78;;
46290;SDS011;32023;44.444;26.006;2023-05-21T00:27:35;10.95;;;7.10;;
46290;SDS011;32023;44.444;26.006;2023-05-21T00:30:01;15.77;;;8.13;;
46290;SDS011;32023;44.444;26.006;2023-05-21T00:32:28;8.93;;;6.68;;
46290;SDS011;32023;44.444;26.006;2023-05-21T00:34:58;14.40;;;6.95;;
46290;SDS011;32023;44.444;26.006;2023-05-21T00:37:27;9.82;;;7.32;;
46290;SDS011;32023;44.444;26.006;2023-05-21T00:39:56;15.00;;;7.35;;
46290;SDS011;32023;44.444;26.006;2023-05-21T00:42:23;11.43;;;7.63;;
46290;SDS011;32023;44.444;26.006;2023-05-21T00:44:51;10.68;;;6.60;;
46290;SDS011;32023;44.444;26.006;2023-05-21T00:47:18;10.07;;;7.65;;
46290;SDS011;32023;44.444;26.006;2023-05-21T00:49:45;12.13;;;7.68;;
46290;SDS011;32023;44.444;26.006;2023-05-21T00:52:17;10.05;;;6.88;;
46290;SDS011;32023;44.444;26.006;2023-05-21T00:54:45;10.70;;;7.38;;
46290;SDS011;32023;44.444;26.006;2023-05-21T00:57:16;9.48;;;6.65;;
46290;SDS011;32023;44.444;26.006;2023-05-21T00:59:47;11.02;;;7.63;;
46290;SDS011;32023;44.444;26.006;2023-05-21T01:02:21;10.98;;;7.75;;
46290;SDS011;32023;44.444;26.006;2023-05-21T01:04:53;13.98;;;7.75;;
46290;SDS011;32023;44.444;26.006;2023-05-21T01:07:20;10.93;;;7.03;;
46290;SDS011;32023;44.444;26.006;2023-05-21T01:09:46;11.43;;;6.57;;
46290;SDS011;32023;44.444;26.006;2023-05-21T01:12:13;14.18;;;7.32;;
46290;SDS011;32023;44.444;26.006;2023-05-21T01:14:40;13.95;;;7.13;;
46290;SDS011;32023;44.444;26.006;2023-05-21T01:17:07;8.77;;;6.80;;
46290;SDS011;32023;44.444;26.006;2023-05-21T01:19:47;9.73;;;6.88;;
46290;SDS011;32023;44.444;26.006;2023-05-21T01:22:14;11.10;;;6.82;;
46290;SDS011;32023;44.444;26.006;2023-05-21T01:24:45;13.10;;;6.50;;
46290;SDS011;32023;44.444;26.006;2023-05-21T01:27:13;12.15;;;7.50;;
46290;SDS011;32023;44.444;26.006;2023-05-21T01:29:40;12.43;;;6.95;;
46290;SDS011;32023;44.444;26.006;2023-05-21T01:43:06;8.35;;;6.57;;
46290;SDS011;32023;44.444;26.006;2023-05-21T01:48:37;10.30;;;6.97;;
46290;SDS011;32023;44.444;26.006;2023-05-21T01:51:06;9.88;;;7.43;;
46290;SDS011;32023;44.444;26.006;2023-05-21T01:53:32;14.85;;;7.97;;
46290;SDS011;32023;44.444;26.006;2023-05-21T01:55:59;14.13;;;7.05;;
46290;SDS011;32023;44.444;26.006;2023-05-21T01:58:30;13.98;;;7.32;;
46290;SDS011;32023;44.444;26.006;2023-05-21T02:00:57;10.38;;;7.18;;
46290;SDS011;32023;44.444;26.006;2023-05-21T02:03:24;14.20;;;7.65;;
46290;SDS011;32023;44.444;26.006;2023-05-21T02:05:53;8.80;;;6.65;;
46290;SDS011;32023;44.444;26.006;2023-05-21T02:18:56;10.25;;;7.25;;
46290;SDS011;32023;44.444;26.006;2023-05-21T02:21:24;12.43;;;7.10;;
46290;SDS011;32023;44.444;26.006;2023-05-21T02:24:06;9.73;;;7.68;;
46290;SDS011;32023;44.444;26.006;2023-05-21T02:26:44;9.80;;;7.15;;
46290;SDS011;32023;44.444;26.006;2023-05-21T02:29:12;8.98;;;7.18;;
46290;SDS011;32023;44.444;26.006;2023-05-21T02:31:40;9.18;;;7.13;;
46290;SDS011;32023;44.444;26.006;2023-05-21T02:34:07;14.55;;;8.02;;
46290;SDS011;32023;44.444;26.006;2023-05-21T02:36:33;12.23;;;8.10;;
46290;SDS011;32023;44.444;26.006;2023-05-21T02:39:04;11.15;;;7.88;;
46290;SDS011;32023;44.444;26.006;2023-05-21T02:46:51;12.20;;;7.38;;
46290;SDS011;32023;44.444;26.006;2023-05-21T02:49:32;10.38;;;7.40;;
46290;SDS011;32023;44.444;26.006;2023-05-21T02:51:58;11.38;;;7.32;;
46290;SDS011;32023;44.444;26.006;2023-05-21T02:54:25;10.55;;;7.57;;
46290;SDS011;32023;44.444;26.006;2023-05-21T03:00:27;12.40;;;7.88;;
46290;SDS011;32023;44.444;26.006;2023-05-21T03:02:53;12.18;;;7.30;;
46290;SDS011;32023;44.444;26.006;2023-05-21T03:05:20;10.52;;;7.65;;
46290;SDS011;32023;44.444;26.006;2023-05-21T03:07:46;12.00;;;7.50;;
46290;SDS011;32023;44.444;26.006;2023-05-21T03:10:15;10.98;;;7.28;;
46290;SDS011;32023;44.444;26.006;2023-05-21T03:12:47;10.95;;;6.95;;
46290;SDS011;32023;44.444;26.006;2023-05-21T03:15:16;10.55;;;7.72;;
46290;SDS011;32023;44.444;26.006;2023-05-21T03:17:48;14.52;;;7.28;;
46290;SDS011;32023;44.444;26.006;2023-05-21T03:20:15;16.00;;;8.25;;
46290;SDS011;32023;44.444;26.006;2023-05-21T03:22:43;13.55;;;6.45;;
46290;SDS011;32023;44.444;26.006;2023-05-21T03:25:10;13.32;;;7.32;;
46290;SDS011;32023;44.444;26.006;2023-05-21T03:27:37;12.93;;;7.00;;
46290;SDS011;32023;44.444;26.006;2023-05-21T03:30:18;10.80;;;6.70;;
46290;SDS011;32023;44.444;26.006;2023-05-21T03:32:45;14.50;;;6.90;;
46290;SDS011;32023;44.444;26.006;2023-05-21T03:35:11;11.57;;;6.05;;
46290;SDS011;32023;44.444;26.006;2023-05-21T03:37:40;10.13;;;5.82;;
46290;SDS011;32023;44.444;26.006;2023-05-21T03:40:07;14.07;;;6.57;;
46290;SDS011;32023;44.444;26.006;2023-05-21T03:42:36;11.27;;;6.15;;
46290;SDS011;32023;44.444;26.006;2023-05-21T03:45:02;9.73;;;5.68;;
46290;SDS011;32023;44.444;26.006;2023-05-21T03:47:38;7.18;;;6.38;;
46290;SDS011;32023;44.444;26.006;2023-05-21T03:50:17;11.57;;;5.90;;
46290;SDS011;32023;44.444;26.006;2023-05-21T03:53:10;15.07;;;5.95;;
46290;SDS011;32023;44.444;26.006;2023-05-21T03:55:48;9.88;;;6.18;;
46290;SDS011;32023;44.444;26.006;2023-05-21T03:58:20;10.65;;;5.15;;
46290;SDS011;32023;44.444;26.006;2023-05-21T04:00:50;11.00;;;6.15;;
46290;SDS011;32023;44.444;26.006;2023-05-21T04:03:17;8.15;;;5.93;;
46290;SDS011;32023;44.444;26.006;2023-05-21T04:05:53;11.70;;;6.13;;
46290;SDS011;32023;44.444;26.006;2023-05-21T04:08:40;10.00;;;5.95;;
46290;SDS011;32023;44.444;26.006;2023-05-21T04:11:09;12.13;;;5.90;;
46290;SDS011;32023;44.444;26.006;2023-05-21T04:13:37;10.73;;;5.32;;
46290;SDS011;32023;44.444;26.006;2023-05-21T04:16:12;12.35;;;6.10;;
46290;SDS011;32023;44.444;26.006;2023-05-21T04:18:45;9.65;;;5.43;;
46290;SDS011;32023;44.444;26.006;2023-05-21T04:21:18;7.43;;;5.18;;
46290;SDS011;32023;44.444;26.006;2023-05-21T04:24:02;9.75;;;5.35;;
46290;SDS011;32023;44.444;26.006;2023-05-21T04:26:31;14.07;;;5.30;;
46290;SDS011;32023;44.444;26.006;2023-05-21T04:29:06;7.32;;;4.70;;
46290;SDS011;32023;44.444;26.006;2023-05-21T04:31:38;8.23;;;5.47;;
46290;SDS011;32023;44.444;26.006;2023-05-21T04:34:20;8.30;;;5.53;;
46290;SDS011;32023;44.444;26.006;2023-05-21T04:36:47;6.88;;;5.03;;
46290;SDS011;32023;44.444;26.006;2023-05-21T04:39:13;6.93;;;4.50;;
46290;SDS011;32023;44.444;26.006;2023-05-21T04:41:41;7.85;;;5.07;;
46290;SDS011;32023;44.444;26.006;2023-05-21T04:44:08;8.35;;;5.00;;
46290;SDS011;32023;44.444;26.006;2023-05-21T04:46:35;10.18;;;4.95;;
46290;SDS011;32023;44.444;26.006;2023-05-21T04:49:04;9.38;;;4.93;;
46290;SDS011;32023;44.444;26.006;2023-05-21T04:51:46;9.82;;;4.63;;
46290;SDS011;32023;44.444;26.006;2023-05-21T04:57:23;7.82;;;4.57;;
46290;SDS011;32023;44.444;26.006;2023-05-21T04:59:49;6.18;;;4.53;;
46290;SDS011;32023;44.444;26.006;2023-05-21T05:02:25;9.68;;;4.25;;
46290;SDS011;32023;44.444;26.006;2023-05-21T05:04:55;7.32;;;4.53;;
46290;SDS011;32023;44.444;26.006;2023-05-21T05:07:41;11.50;;;4.55;;
46290;SDS011;32023;44.444;26.006;2023-05-21T05:10:14;6.32;;;4.60;;
46290;SDS011;32023;44.444;26.006;2023-05-21T05:12:47;6.65;;;4.50;;
46290;SDS011;32023;44.444;26.006;2023-05-21T05:18:12;6.53;;;4.82;;
46290;SDS011;32023;44.444;26.006;2023-05-21T05:21:14;12.27;;;4.93;;
46290;SDS011;32023;44.444;26.006;2023-05-21T05:24:04;7.47;;;4.20;;
46290;SDS011;32023;44.444;26.006;2023-05-21T05:26:40;5.50;;;4.05;;
46290;SDS011;32023;44.444;26.006;2023-05-21T05:32:02;5.95;;;4.05;;
46290;SDS011;32023;44.444;26.006;2023-05-21T05:34:50;8.88;;;4.43;;
46290;SDS011;32023;44.444;26.006;2023-05-21T05:37:32;8.77;;;4.35;;
46290;SDS011;32023;44.444;26.006;2023-05-21T05:40:18;8.80;;;4.35;;
46290;SDS011;32023;44.444;26.006;2023-05-21T05:43:07;7.75;;;4.13;;
46290;SDS011;32023;44.444;26.006;2023-05-21T05:46:10;6.47;;;4.60;;
46290;SDS011;32023;44.444;26.006;2023-05-21T05:49:04;8.18;;;4.63;;
46290;SDS011;32023;44.444;26.006;2023-05-21T05:51:49;7.93;;;4.15;;
46290;SDS011;32023;44.444;26.006;2023-05-21T06:14:58;8.60;;;4.35;;
46290;SDS011;32023;44.444;26.006;2023-05-21T06:17:49;6.10;;;3.67;;
46290;SDS011;32023;44.444;26.006;2023-05-21T06:20:58;6.20;;;3.75;;
46290;SDS011;32023;44.444;26.006;2023-05-21T06:30:00;5.40;;;3.78;;
46290;SDS011;32023;44.444;26.006;2023-05-21T06:36:03;6.05;;;4.18;;
46290;SDS011;32023;44.444;26.006;2023-05-21T06:38:33;9.52;;;3.70;;
46290;SDS011;32023;44.444;26.006;2023-05-21T06:41:11;16.48;;;4.18;;
46290;SDS011;32023;44.444;26.006;2023-05-21T06:43:38;6.90;;;4.22;;
46290;SDS011;32023;44.444;26.006;2023-05-21T06:46:12;8.00;;;4.03;;
46290;SDS011;32023;44.444;26.006;2023-05-21T06:48:55;6.45;;;3.55;;
46290;SDS011;32023;44.444;26.006;2023-05-21T06:51:40;6.75;;;3.70;;
46290;SDS011;32023;44.444;26.006;2023-05-21T06:58:29;6.22;;;3.75;;
46290;SDS011;32023;44.444;26.006;2023-05-21T07:01:07;7.97;;;4.03;;
46290;SDS011;32023;44.444;26.006;2023-05-21T07:04:36;9.73;;;3.63;;
46290;SDS011;32023;44.444;26.006;2023-05-21T07:07:15;7.22;;;4.03;;
46290;SDS011;32023;44.444;26.006;2023-05-21T07:20:57;6.82;;;3.50;;
46290;SDS011;32023;44.444;26.006;2023-05-21T07:27:01;12.48;;;4.22;;
46290;SDS011;32023;44.444;26.006;2023-05-21T07:29:44;8.70;;;3.70;;
46290;SDS011;32023;44.444;26.006;2023-05-21T07:39:38;10.07;;;3.88;;
46290;SDS011;32023;44.444;26.006;2023-05-21T07:46:05;10.02;;;3.13;;
46290;SDS011;32023;44.444;26.006;2023-05-21T07:51:08;8.45;;;3.35;;
46290;SDS011;32023;44.444;26.006;2023-05-21T07:54:01;6.75;;;3.90;;
46290;SDS011;32023;44.444;26.006;2023-05-21T07:56:49;7.05;;;3.40;;
46290;SDS011;32023;44.444;26.006;2023-05-21T07:59:41;12.77;;;4.18;;
46290;SDS011;32023;44.444;26.006;2023-05-21T08:02:20;7.00;;;3.28;;
46290;SDS011;32023;44.444;26.006;2023-05-21T08:04:46;7.45;;;3.45;;
46290;SDS011;32023;44.444;26.006;2023-05-21T08:07:22;10.13;;;3.67;;
46290;SDS011;32023;44.444;26.006;2023-05-21T08:09:48;5.90;;;3.38;;
46290;SDS011;32023;44.444;26.006;2023-05-21T08:12:23;5.35;;;3.38;;
46290;SDS011;32023;44.444;26.006;2023-05-21T08:14:56;7.25;;;3.80;;
46290;SDS011;32023;44.444;26.006;2023-05-21T08:17:23;5.88;;;3.47;;
46290;SDS011;32023;44.444;26.006;2023-05-21T08:19:49;8.98;;;3.35;;
46290;SDS011;32023;44.444;26.006;2023-05-21T08:25:09;10.10;;;3.83;;
46290;SDS011;32023;44.444;26.006;2023-05-21T08:27:35;8.60;;;3.70;;
46290;SDS011;32023;44.444;26.006;2023-05-21T08:30:02;13.15;;;4.22;;
46290;SDS011;32023;44.444;26.006;2023-05-21T08:32:36;8.18;;;3.28;;
46290;SDS011;32023;44.444;26.006;2023-05-21T08:35:02;7.60;;;3.50;;
46290;SDS011;32023;44.444;26.006;2023-05-21T08:37:36;4.65;;;3.40;;
46290;SDS011;32023;44.444;26.006;2023-05-21T08:40:16;6.00;;;3.20;;
46290;SDS011;32023;44.444;26.006;2023-05-21T08:45:54;13.48;;;3.58;;
46290;SDS011;32023;44.444;26.006;2023-05-21T08:48:31;10.38;;;3.90;;
46290;SDS011;32023;44.444;26.006;2023-05-21T08:51:01;12.98;;;3.63;;
46290;SDS011;32023;44.444;26.006;2023-05-21T08:53:54;4.15;;;3.03;;
46290;SDS011;32023;44.444;26.006;2023-05-21T08:56:24;6.72;;;3.22;;
46290;SDS011;32023;44.444;26.006;2023-05-21T08:58:51;9.68;;;3.35;;
46290;SDS011;32023;44.444;26.006;2023-05-21T09:01:40;9.10;;;3.80;;
46290;SDS011;32023;44.444;26.006;2023-05-21T09:17:32;6.82;;;3.63;;
46290;SDS011;32023;44.444;26.006;2023-05-21T09:27:11;9.95;;;3.67;;
46290;SDS011;32023;44.444;26.006;2023-05-21T09:33:22;7.70;;;3.92;;
46290;SDS011;32023;44.444;26.006;2023-05-21T09:39:38;9.70;;;3.92;;
46290;SDS011;32023;44.444;26.006;2023-05-21T09:42:18;6.95;;;3.55;;
46290;SDS011;32023;44.444;26.006;2023-05-21T09:44:56;7.57;;;3.17;;
46290;SDS011;32023;44.444;26.006;2023-05-21T09:47:26;9.35;;;3.65;;
46290;SDS011;32023;44.444;26.006;2023-05-21T09:53:14;9.77;;;3.60;;
46290;SDS011;32023;44.444;26.006;2023-05-21T09:56:08;7.75;;;3.60;;
46290;SDS011;32023;44.444;26.006;2023-05-21T10:02:25;15.75;;;5.70;;
46290;SDS011;32023;44.444;26.006;2023-05-21T10:09:13;8.68;;;4.55;;
46290;SDS011;32023;44.444;26.006;2023-05-21T10:23:04;8.50;;;3.58;;
46290;SDS011;32023;44.444;26.006;2023-05-21T10:26:13;5.57;;;3.15;;
46290;SDS011;32023;44.444;26.006;2023-05-21T10:49:58;13.45;;;3.63;;
46290;SDS011;32023;44.444;26.006;2023-05-21T11:02:56;6.50;;;3.10;;
46290;SDS011;32023;44.444;26.006;2023-05-21T11:09:00;9.35;;;3.28;;
46290;SDS011;32023;44.444;26.006;2023-05-21T11:11:55;9.38;;;3.50;;
46290;SDS011;32023;44.444;26.006;2023-05-21T11:20:32;8.48;;;3.30;;
46290;SDS011;32023;44.444;26.006;2023-05-21T11:22:59;4.65;;;3.53;;
46290;SDS011;32023;44.444;26.006;2023-05-21T11:25:31;8.50;;;3.38;;
46290;SDS011;32023;44.444;26.006;2023-05-21T11:28:04;8.82;;;3.53;;
46290;SDS011;32023;44.444;26.006;2023-05-21T11:30:33;5.45;;;3.17;;
46290;SDS011;32023;44.444;26.006;2023-05-21T11:33:20;8.30;;;3.35;;
46290;SDS011;32023;44.444;26.006;2023-05-21T11:38:21;5.40;;;3.03;;
46290;SDS011;32023;44.444;26.006;2023-05-21T11:40:59;8.75;;;3.85;;
46290;SDS011;32023;44.444;26.006;2023-05-21T11:43:42;7.00;;;3.38;;
46290;SDS011;32023;44.444;26.006;2023-05-21T11:48:46;7.97;;;3.90;;
46290;SDS011;32023;44.444;26.006;2023-05-21T11:51:15;11.03;;;3.27;;
46290;SDS011;32023;44.444;26.006;2023-05-21T11:53:52;9.95;;;3.60;;
46290;SDS011;32023;44.444;26.006;2023-05-21T11:56:30;8.40;;;4.22;;
46290;SDS011;32023;44.444;26.006;2023-05-21T11:59:01;6.13;;;3.60;;
46290;SDS011;32023;44.444;26.006;2023-05-21T12:01:42;5.70;;;3.78;;
46290;SDS011;32023;44.444;26.006;2023-05-21T12:04:18;9.60;;;3.67;;
46290;SDS011;32023;44.444;26.006;2023-05-21T12:06:47;12.88;;;4.05;;
46290;SDS011;32023;44.444;26.006;2023-05-21T12:09:16;12.00;;;4.43;;
46290;SDS011;32023;44.444;26.006;2023-05-21T12:17:53;10.70;;;4.75;;
46290;SDS011;32023;44.444;26.006;2023-05-21T12:23:44;16.27;;;3.72;;
46290;SDS011;32023;44.444;26.006;2023-05-21T12:26:11;9.75;;;3.80;;
46290;SDS011;32023;44.444;26.006;2023-05-21T12:28:54;11.50;;;3.95;;
46290;SDS011;32023;44.444;26.006;2023-05-21T12:31:31;5.72;;;2.80;;
46290;SDS011;32023;44.444;26.006;2023-05-21T12:34:35;8.68;;;3.58;;
46290;SDS011;32023;44.444;26.006;2023-05-21T12:37:25;15.32;;;4.00;;
46290;SDS011;32023;44.444;26.006;2023-05-21T12:40:06;15.07;;;4.30;;
46290;SDS011;32023;44.444;26.006;2023-05-21T12:42:36;7.75;;;3.33;;
46290;SDS011;32023;44.444;26.006;2023-05-21T12:47:45;9.63;;;3.70;;
46290;SDS011;32023;44.444;26.006;2023-05-21T12:59:55;7.75;;;3.40;;
46290;SDS011;32023;44.444;26.006;2023-05-21T13:02:58;7.22;;;3.97;;
46290;SDS011;32023;44.444;26.006;2023-05-21T13:05:50;7.90;;;3.97;;
46290;SDS011;32023;44.444;26.006;2023-05-21T13:08:23;11.43;;;4.40;;
46290;SDS011;32023;44.444;26.006;2023-05-21T13:10:52;8.50;;;4.75;;
46290;SDS011;32023;44.444;26.006;2023-05-21T13:13:27;9.15;;;4.53;;
46290;SDS011;32023;44.444;26.006;2023-05-21T13:16:04;6.00;;;3.70;;
46290;SDS011;32023;44.444;26.006;2023-05-21T13:18:42;5.82;;;3.60;;
46290;SDS011;32023;44.444;26.006;2023-05-21T13:21:10;7.70;;;4.28;;
46290;SDS011;32023;44.444;26.006;2023-05-21T13:23:46;14.25;;;4.68;;
46290;SDS011;32023;44.444;26.006;2023-05-21T13:26:12;9.65;;;4.28;;
46290;SDS011;32023;44.444;26.006;2023-05-21T13:28:44;8.77;;;3.30;;
46290;SDS011;32023;44.444;26.006;2023-05-21T13:31:16;19.48;;;3.53;;
46290;SDS011;32023;44.444;26.006;2023-05-21T13:33:46;27.55;;;4.32;;
46290;SDS011;32023;44.444;26.006;2023-05-21T13:36:15;9.05;;;3.40;;
46290;SDS011;32023;44.444;26.006;2023-05-21T13:38:46;9.80;;;3.15;;
46290;SDS011;32023;44.444;26.006;2023-05-21T13:41:13;8.93;;;3.85;;
46290;SDS011;32023;44.444;26.006;2023-05-21T13:43:43;7.47;;;3.40;;
46290;SDS011;32023;44.444;26.006;2023-05-21T13:46:11;7.75;;;3.75;;
46290;SDS011;32023;44.444;26.006;2023-05-21T13:48:40;9.27;;;3.97;;
46290;SDS011;32023;44.444;26.006;2023-05-21T13:51:13;20.17;;;4.38;;
46290;SDS011;32023;44.444;26.006;2023-05-21T13:53:39;6.65;;;3.47;;
46290;SDS011;32023;44.444;26.006;2023-05-21T13:56:06;17.05;;;4.65;;
46290;SDS011;32023;44.444;26.006;2023-05-21T13:58:35;10.60;;;4.68;;
46290;SDS011;32023;44.444;26.006;2023-05-21T14:01:04;8.98;;;4.22;;
46290;SDS011;32023;44.444;26.006;2023-05-21T14:03:38;12.48;;;5.22;;
46290;SDS011;32023;44.444;26.006;2023-05-21T14:06:08;9.23;;;4.45;;
46290;SDS011;32023;44.444;26.006;2023-05-21T14:08:42;12.70;;;4.15;;
46290;SDS011;32023;44.444;26.006;2023-05-21T14:11:14;10.25;;;4.50;;
46290;SDS011;32023;44.444;26.006;2023-05-21T14:13:41;9.63;;;5.25;;
46290;SDS011;32023;44.444;26.006;2023-05-21T14:16:07;8.70;;;5.47;;
46290;SDS011;32023;44.444;26.006;2023-05-21T14:18:34;13.07;;;7.57;;
46290;SDS011;32023;44.444;26.006;2023-05-21T14:21:08;13.88;;;6.88;;
46290;SDS011;32023;44.444;26.006;2023-05-21T14:23:38;8.65;;;6.32;;
46290;SDS011;32023;44.444;26.006;2023-05-21T14:26:04;11.93;;;7.75;;
46290;SDS011;32023;44.444;26.006;2023-05-21T14:28:33;7.93;;;5.03;;
46290;SDS011;32023;44.444;26.006;2023-05-21T14:31:02;9.57;;;5.20;;
46290;SDS011;32023;44.444;26.006;2023-05-21T14:33:34;8.70;;;4.97;;
46290;SDS011;32023;44.444;26.006;2023-05-21T14:39:27;7.80;;;5.13;;
46290;SDS011;32023;44.444;26.006;2023-05-21T14:42:01;7.40;;;4.32;;
46290;SDS011;32023;44.444;26.006;2023-05-21T14:44:39;7.03;;;4.75;;
46290;SDS011;32023;44.444;26.006;2023-05-21T14:47:19;7.57;;;3.97;;
46290;SDS011;32023;44.444;26.006;2023-05-21T14:50:01;5.65;;;4.03;;
46290;SDS011;32023;44.444;26.006;2023-05-21T14:56:00;7.82;;;4.18;;
46290;SDS011;32023;44.444;26.006;2023-05-21T14:58:37;7.00;;;4.32;;
46290;SDS011;32023;44.444;26.006;2023-05-21T15:01:04;8.63;;;4.75;;
46290;SDS011;32023;44.444;26.006;2023-05-21T15:06:06;10.18;;;5.90;;
46290;SDS011;32023;44.444;26.006;2023-05-21T15:08:36;10.90;;;5.22;;
46290;SDS011;32023;44.444;26.006;2023-05-21T15:11:02;10.63;;;5.63;;
46290;SDS011;32023;44.444;26.006;2023-05-21T15:13:38;10.07;;;5.07;;
46290;SDS011;32023;44.444;26.006;2023-05-21T15:16:20;9.85;;;4.85;;
46290;SDS011;32023;44.444;26.006;2023-05-21T15:19:00;11.48;;;4.15;;
46290;SDS011;32023;44.444;26.006;2023-05-21T15:21:34;8.35;;;4.03;;
46290;SDS011;32023;44.444;26.006;2023-05-21T15:24:00;6.63;;;3.35;;
46290;SDS011;32023;44.444;26.006;2023-05-21T15:26:27;4.53;;;3.35;;
46290;SDS011;32023;44.444;26.006;2023-05-21T15:28:58;5.22;;;3.10;;
46290;SDS011;32023;44.444;26.006;2023-05-21T15:34:04;7.53;;;3.72;;
46290;SDS011;32023;44.444;26.006;2023-05-21T15:36:45;9.60;;;3.97;;
46290;SDS011;32023;44.444;26.006;2023-05-21T15:42:08;9.18;;;4.03;;
46290;SDS011;32023;44.444;26.006;2023-05-21T15:53:43;5.95;;;4.50;;
46290;SDS011;32023;44.444;26.006;2023-05-21T15:56:18;11.63;;;4.70;;
46290;SDS011;32023;44.444;26.006;2023-05-21T15:59:03;9.50;;;4.60;;
46290;SDS011;32023;44.444;26.006;2023-05-21T16:01:29;6.90;;;4.32;;
46290;SDS011;32023;44.444;26.006;2023-05-21T16:04:00;8.18;;;4.72;;
46290;SDS011;32023;44.444;26.006;2023-05-21T16:06:42;7.50;;;4.55;;
46290;SDS011;32023;44.444;26.006;2023-05-21T16:13:26;7.38;;;3.72;;
46290;SDS011;32023;44.444;26.006;2023-05-21T18:00:27;6.28;;;3.72;;
46290;SDS011;32023;44.444;26.006;2023-05-21T18:20:51;4.00;;;3.00;;
46290;SDS011;32023;44.444;26.006;2023-05-21T18:23:34;6.38;;;3.78;;
46290;SDS011;32023;44.444;26.006;2023-05-21T18:32:17;6.95;;;3.60;;
46290;SDS011;32023;44.444;26.006;2023-05-21T18:35:04;5.85;;;4.00;;
46290;SDS011;32023;44.444;26.006;2023-05-21T18:47:15;7.65;;;3.85;;
46290;SDS011;32023;44.444;26.006;2023-05-21T20:05:24;7.45;;;4.03;;
46290;SDS011;32023;44.444;26.006;2023-05-21T20:15:25;8.13;;;4.35;;
46290;SDS011;32023;44.444;26.006;2023-05-21T20:17:58;7.47;;;4.63;;
46290;SDS011;32023;44.444;26.006;2023-05-21T20:20:43;6.68;;;4.82;;
46290;SDS011;32023;44.444;26.006;2023-05-21T20:23:37;8.38;;;4.75;;
46290;SDS011;32023;44.444;26.006;2023-05-21T20:26:20;9.70;;;4.63;;
46290;SDS011;32023;44.444;26.006;2023-05-21T20:35:16;6.25;;;4.40;;
46290;SDS011;32023;44.444;26.006;2023-05-21T20:44:57;8.40;;;4.72;;
46290;SDS011;32023;44.444;26.006;2023-05-21T21:07:39;5.50;;;4.00;;
46290;SDS011;32023;44.444;26.006;2023-05-21T21:10:33;10.20;;;4.55;;
46290;SDS011;32023;44.444;26.006;2023-05-21T21:16:02;6.83;;;4.03;;
46290;SDS011;32023;44.444;26.006;2023-05-21T21:18:41;7.65;;;4.00;;
46290;SDS011;32023;44.444;26.006;2023-05-21T21:21:42;10.25;;;4.50;;
46290;SDS011;32023;44.444;26.006;2023-05-21T21:24:25;8.75;;;4.00;;
46290;SDS011;32023;44.444;26.006;2023-05-21T21:27:16;6.55;;;4.22;;
46290;SDS011;32023;44.444;26.006;2023-05-21T21:35:58;6.68;;;4.38;;
46290;SDS011;32023;44.444;26.006;2023-05-21T21:38:29;9.63;;;4.65;;
46290;SDS011;32023;44.444;26.006;2023-05-21T21:41:34;5.57;;;4.40;;
46290;SDS011;32023;44.444;26.006;2023-05-21T21:44:16;7.85;;;4.80;;
46290;SDS011;32023;44.444;26.006;2023-05-21T21:46:59;5.15;;;4.15;;
46290;SDS011;32023;44.444;26.006;2023-05-21T21:56:47;5.53;;;4.22;;
46290;SDS011;32023;44.444;26.006;2023-05-21T22:03:18;5.03;;;3.80;;
46290;SDS011;32023;44.444;26.006;2023-05-21T22:05:48;6.90;;;4.68;;
46290;SDS011;32023;44.444;26.006;2023-05-21T22:08:28;7.72;;;3.95;;
46290;SDS011;32023;44.444;26.006;2023-05-21T22:19:48;4.43;;;3.47;;
46290;SDS011;32023;44.444;26.006;2023-05-21T22:25:35;5.15;;;4.07;;
46290;SDS011;32023;44.444;26.006;2023-05-21T22:28:20;4.35;;;3.70;;
46290;SDS011;32023;44.444;26.006;2023-05-21T22:34:23;7.38;;;3.88;;
46290;SDS011;32023;44.444;26.006;2023-05-21T22:46:08;6.38;;;3.88;;
46290;SDS011;32023;44.444;26.006;2023-05-21T22:49:19;6.75;;;3.85;;
46290;SDS011;32023;44.444;26.006;2023-05-21T22:54:32;6.00;;;3.42;;
46290;SDS011;32023;44.444;26.006;2023-05-21T22:57:26;7.07;;;4.25;;
46290;SDS011;32023;44.444;26.006;2023-05-21T23:00:04;7.32;;;3.50;;
46290;SDS011;32023;44.444;26.006;2023-05-21T23:06:44;7.95;;;3.42;;
46290;SDS011;32023;44.444;26.006;2023-05-21T23:09:26;5.25;;;3.60;;
46290;SDS011;32023;44.444;26.006;2023-05-21T23:12:50;7.65;;;4.00;;
46290;SDS011;32023;44.444;26.006;2023-05-21T23:15:47;7.05;;;4.53;;
46290;SDS011;32023;44.444;26.006;2023-05-21T23:28:22;3.65;;;3.10;;
46290;SDS011;32023;44.444;26.006;2023-05-21T23:31:07;5.28;;;3.97;;
46290;SDS011;32023;44.444;26.006;2023-05-21T23:33:41;4.63;;;4.15;;
46290;SDS011;32023;44.444;26.006;2023-05-21T23:36:32;7.35;;;4.68;;
46290;SDS011;32023;44.444;26.006;2023-05-21T23:39:06;9.27;;;4.03;;
46290;SDS011;32023;44.444;26.006;2023-05-21T23:44:51;6.47;;;3.80;;
46290;SDS011;32023;44.444;26.006;2023-05-21T23:47:45;7.13;;;3.92;;
46290;SDS011;32023;44.444;26.006;2023-05-21T23:50:46;6.00;;;3.45;;
46290;SDS011;32023;44.444;26.006;2023-05-21T23:53:20;5.60;;;3.72;;
46290;SDS011;32023;44.444;26.006;2023-05-21T23:56:21;5.70;;;4.40;;
46290;SDS011;32023;44.444;26.006;2023-05-21T23:59:21;4.78;;;3.85;;
